Airfield :
LOGIN :

Register | Disclaimer

   EN    FR    IT 

 










Legend :    VFR   Marginal VFR   IFR   Intensive IFR   Very Intensive IFR
Visi :
Ceiling :
>= 8 km
>= 3000ft
5 to 8 km
1000 to 3000 ft
1500m to 5 km
500 to 1000 ft
800 to 1500m
200 to 500 ft
< 800m
< 200 ft
Symbols :   Thunderstorms  Fog  Heavy snow  Heavy precipitations  Wind > 20 kt
SIGMETs :     Misc.  Thunderstorms  Icing  Turbulence  Mountain Waves  Volcanic Ashes






- Airport Elevation : 144 ft
- IATA code : PGF


LFMP - Perpignan

CURRENT METAR :
  • 040530Z AUTO 31009KT CAVOK 24/17 Q1017 NOSIG

EXPIRED METARs :
  • 040500Z AUTO 30006KT 270V340 CAVOK 24/16 Q1017 NOSIG
  • 040430Z AUTO 30004KT CAVOK 24/16 Q1017 NOSIG
  • 040330Z AUTO 25005KT CAVOK 23/16 Q1017 NOSIG
  • 040300Z AUTO 26004KT CAVOK 23/16 Q1016 NOSIG

TAF TAF LFMP
Valid from the 04 at 03:00 until the 05 at 03:00 UTC


040200Z 0403/0503 25006KT CAVOK
BECMG 0408/0410 08010KT
BECMG 0416/0418 32010KT
TEMPO 0421/0503 32015G25KT
ATIS : +33 4 68 63 75 12



MET'MAP, your aeronautical weather chart ! - Copyright ORBIFLY December 2007 - Disclaimer

ORBIFLY MET'MAP TEAM :

Programming & Development : Alexandra Zaïnal
Original concept : Baudouin d'Aumeries
Technical & hardware support : Manuel Goepfert
Assistance : Marc-Olivier Méhu




SOURCES & CREDITS :

   NOAA